createdAt,value
2022-08-07T00:00:21.078Z,99967.06
2022-08-07T00:00:53.279Z,99971.47
2022-08-07T00:02:35.168Z,99965.16
2022-08-07T00:02:37.930Z,99973.72
2022-08-07T00:03:13.628Z,99968.97
2022-08-07T00:03:47.395Z,99968.56
2022-08-07T00:04:24.431Z,99967.88
2022-08-07T00:04:57.042Z,99973.38
2022-08-07T00:05:29.619Z,99972.56
2022-08-07T00:06:04.861Z,99966.69
2022-08-07T00:06:47.263Z,99970.22
2022-08-07T00:07:23.678Z,99974.09
2022-08-07T00:08:02.327Z,99972.13
2022-08-07T00:08:37.085Z,99968.56
2022-08-07T00:09:21.053Z,99963.44
2022-08-07T00:10:18.793Z,99967.78
2022-08-07T00:10:57.415Z,99968.06
2022-08-07T00:11:33.174Z,99966.13
2022-08-07T00:12:08.699Z,99964.16
2022-08-07T00:12:57.879Z,99968.88
2022-08-07T00:13:37.518Z,99966.06
2022-08-07T00:14:16.980Z,99968.81
2022-08-07T00:14:53.907Z,99966.50
2022-08-07T00:15:38.096Z,99963.75
2022-08-07T00:16:27.924Z,99965.66
2022-08-07T00:17:02.060Z,99967.59
2022-08-07T00:17:37.388Z,99969.97
2022-08-07T00:18:18.827Z,99973.91
2022-08-07T00:18:52.155Z,99969.09
2022-08-07T00:19:34.311Z,99963.25
2022-08-07T00:20:29.758Z,99959.19
2022-08-07T00:21:56.329Z,99962.75
2022-08-07T00:22:05.799Z,99965.44
2022-08-07T00:22:42.305Z,99959.56
2022-08-07T00:23:24.783Z,99960.72
2022-08-07T00:24:03.065Z,99965.06
2022-08-07T00:24:35.381Z,99964.28
2022-08-07T00:25:15.817Z,99959.56
2022-08-07T00:26:01.523Z,99963.47
2022-08-07T00:26:58.457Z,99966.59
2022-08-07T00:27:51.783Z,99960.22
2022-08-07T00:28:22.766Z,99968.03
2022-08-07T00:29:06.566Z,99974.34
2022-08-07T00:29:38.842Z,99963.31
2022-08-07T00:30:27.708Z,99968.94
2022-08-07T00:31:06.209Z,99962.53
2022-08-07T00:31:44.407Z,99967.31
2022-08-07T00:32:28.226Z,99964.13
2022-08-07T00:33:02.103Z,99961.72
2022-08-07T00:33:35.706Z,99966.09
2022-08-07T00:34:10.646Z,99967.69
2022-08-07T00:34:43.019Z,99961.38
2022-08-07T00:35:15.193Z,99964.13
2022-08-07T00:35:51.519Z,99975.94
2022-08-07T00:36:23.681Z,99973.53
2022-08-07T00:36:57.361Z,99969.19
2022-08-07T00:37:47.822Z,99962.06
2022-08-07T00:38:31.750Z,99966.66
2022-08-07T00:39:08.102Z,99970.94
2022-08-07T00:39:54.433Z,99968.56
2022-08-07T00:40:36.655Z,99965.00
2022-08-07T00:41:14.750Z,99970.06
2022-08-07T00:41:53.527Z,99972.47
2022-08-07T00:42:36.904Z,99968.47
2022-08-07T00:44:00.694Z,99968.47
2022-08-07T00:44:08.549Z,99978.25
2022-08-07T00:44:41.506Z,99972.41
2022-08-07T00:45:16.334Z,99977.53
2022-08-07T00:45:51.800Z,99972.81
2022-08-07T00:46:24.827Z,99970.06
2022-08-07T00:46:57.080Z,99970.06
2022-08-07T00:48:07.548Z,99970.84
2022-08-07T00:48:31.801Z,99984.91
2022-08-07T00:49:07.309Z,99971.16
2022-08-07T00:50:21.453Z,99976.66
2022-08-07T00:50:50.848Z,99971.09
2022-08-07T00:51:56.409Z,99981.28
2022-08-07T00:52:19.889Z,99975.72
2022-08-07T00:52:54.900Z,99967.53
2022-08-07T00:53:38.918Z,99974.63
2022-08-07T00:54:22.487Z,99971.44
2022-08-07T00:54:56.182Z,99969.94
2022-08-07T00:56:02.330Z,99973.91
2022-08-07T00:56:30.056Z,99979.69
2022-08-07T00:57:06.106Z,99978.19
2022-08-07T00:57:38.449Z,99979.00
2022-08-07T00:58:30.196Z,99978.53
2022-08-07T00:59:03.564Z,99978.19
2022-08-07T00:59:36.453Z,99977.81
2022-08-07T01:00:12.862Z,99979.41
2022-08-07T01:00:53.638Z,99980.19
2022-08-07T01:01:29.169Z,99986.88
2022-08-07T01:02:28.264Z,99990.34
2022-08-07T01:03:04.371Z,99988.75
2022-08-07T01:03:56.252Z,99984.03
2022-08-07T01:04:35.502Z,99986.38
2022-08-07T01:05:19.805Z,99988.34
2022-08-07T01:05:58.184Z,99996.22
2022-08-07T01:06:30.654Z,99993.47
2022-08-07T01:07:04.852Z,99993.91
2022-08-07T01:07:39.804Z,99991.16
2022-08-07T01:08:14.866Z,99993.56
2022-08-07T01:08:53.486Z,99991.56
2022-08-07T01:10:03.877Z,99996.66
2022-08-07T01:10:23.827Z,99989.84
2022-08-07T01:11:00.735Z,99992.66
2022-08-07T01:12:09.144Z,99989.41
2022-08-07T01:12:54.186Z,99991.72
2022-08-07T01:13:35.194Z,99985.78
2022-08-07T01:14:08.895Z,99997.22
2022-08-07T01:14:45.068Z,99993.31
2022-08-07T01:15:17.903Z,99997.22
2022-08-07T01:16:05.548Z,99994.13
2022-08-07T01:16:43.134Z,99984.19
2022-08-07T01:17:15.851Z,99990.84
2022-08-07T01:17:48.800Z,99988.56
2022-08-07T01:18:24.793Z,99996.41
2022-08-07T01:18:58.671Z,99993.25
2022-08-07T01:19:33.002Z,99992.44
2022-08-07T01:20:16.960Z,99995.22
2022-08-07T01:20:57.567Z,99990.84
2022-08-07T01:21:37.683Z,99990.41
2022-08-07T01:22:16.237Z,99992.38
2022-08-07T01:23:09.090Z,99994.69
2022-08-07T01:23:49.086Z,99995.41
2022-08-07T01:24:23.116Z,99995.03
2022-08-07T01:24:56.272Z,99991.50
2022-08-07T01:25:53.669Z,99996.63
2022-08-07T01:26:26.009Z,99998.88
2022-08-07T01:27:00.170Z,99993.81
2022-08-07T01:27:35.693Z,99991.06
2022-08-07T01:28:14.333Z,99996.91
2022-08-07T01:28:49.170Z,99993.81
2022-08-07T01:29:31.459Z,99989.84
2022-08-07T01:30:08.354Z,99982.22
2022-08-07T01:30:44.931Z,99993.75
2022-08-07T01:31:41.511Z,99989.84
2022-08-07T01:32:17.466Z,99989.31
2022-08-07T01:32:54.878Z,99985.03
2022-08-07T01:33:30.094Z,99988.59
2022-08-07T01:34:30.055Z,99988.53
2022-08-07T01:35:08.120Z,99988.53
2022-08-07T01:35:53.844Z,99984.63
2022-08-07T01:36:34.062Z,99988.88
2022-08-07T01:37:18.072Z,99988.06
2022-08-07T01:37:52.419Z,99989.66
2022-08-07T01:38:29.249Z,99982.66
2022-08-07T01:39:09.803Z,99987.72
2022-08-07T01:39:46.578Z,99992.88
2022-08-07T01:40:43.373Z,99992.78
2022-08-07T01:41:26.253Z,99985.53
2022-08-07T01:42:37.604Z,99987.94
2022-08-07T01:42:59.127Z,99982.84
2022-08-07T01:43:38.474Z,99993.50
2022-08-07T01:44:12.927Z,99991.19
2022-08-07T01:44:49.790Z,99988.88
2022-08-07T01:45:22.934Z,99989.66
2022-08-07T01:46:05.997Z,99986.91
2022-08-07T01:46:43.917Z,99981.00
2022-08-07T01:48:20.741Z,99985.78
2022-08-07T01:48:29.183Z,99992.00
2022-08-07T01:49:03.350Z,99994.31
2022-08-07T01:49:36.509Z,99990.41
2022-08-07T01:50:13.187Z,99993.22
2022-08-07T01:50:50.542Z,99987.72
2022-08-07T01:52:01.213Z,99992.06
2022-08-07T01:52:24.638Z,99993.94
2022-08-07T01:53:08.612Z,99994.75
2022-08-07T01:54:09.086Z,99995.91
2022-08-07T01:54:44.482Z,99989.88
2022-08-07T01:55:24.318Z,99985.19
2022-08-07T01:56:07.678Z,99987.94
2022-08-07T01:56:49.709Z,99996.53
2022-08-07T01:57:27.771Z,99988.66
2022-08-07T01:58:06.462Z,99997.78
2022-08-07T01:59:03.916Z,99985.78
2022-08-07T01:59:44.238Z,99986.94
2022-08-07T02:00:28.759Z,99990.50
2022-08-07T02:01:09.507Z,99992.81
2022-08-07T02:02:00.191Z,99990.84
2022-08-07T02:03:18.877Z,99994.31
2022-08-07T02:03:50.417Z,99992.66
2022-08-07T02:04:31.415Z,99985.97
2022-08-07T02:05:16.161Z,99991.47
2022-08-07T02:06:31.557Z,99986.25
2022-08-07T02:07:07.132Z,99991.31
2022-08-07T02:07:53.985Z,99987.41
2022-08-07T02:08:40.585Z,99988.56
2022-08-07T02:09:51.750Z,99987.41
2022-08-07T02:10:16.653Z,99989.72
2022-08-07T02:10:55.333Z,99988.22
2022-08-07T02:12:03.377Z,99984.66
2022-08-07T02:12:31.271Z,99984.22
2022-08-07T02:13:07.834Z,99988.56
2022-08-07T02:13:59.830Z,99990.16
2022-08-07T02:14:40.834Z,99984.22
2022-08-07T02:15:22.595Z,99992.47
2022-08-07T02:16:02.212Z,99988.56
2022-08-07T02:16:40.739Z,99986.63
2022-08-07T02:17:16.567Z,99989.78
2022-08-07T02:18:02.298Z,99990.16
2022-08-07T02:18:38.318Z,99993.72
2022-08-07T02:20:04.155Z,99986.63
2022-08-07T02:20:23.549Z,99994.78
2022-08-07T02:21:00.311Z,99993.63
2022-08-07T02:21:56.588Z,99988.91
2022-08-07T02:22:34.503Z,99985.75
2022-08-07T02:23:11.694Z,99981.47
2022-08-07T02:23:49.322Z,99994.88
2022-08-07T02:24:24.022Z,99992.13
2022-08-07T02:24:59.023Z,99986.25
2022-08-07T02:26:32.022Z,99992.53
2022-08-07T02:26:34.345Z,99985.38
2022-08-07T02:27:08.610Z,99986.16
2022-08-07T02:27:44.697Z,99985.81
2022-08-07T02:28:28.842Z,99985.81
2022-08-07T02:29:13.590Z,99986.63
2022-08-07T02:29:54.674Z,99988.91
2022-08-07T02:30:33.789Z,99986.53
2022-08-07T02:31:18.690Z,99989.28
2022-08-07T02:32:04.268Z,99990.00
2022-08-07T02:32:39.418Z,99986.09
2022-08-07T02:33:57.186Z,99987.63
2022-08-07T02:34:27.085Z,99986.34
2022-08-07T02:35:06.175Z,99983.69
2022-08-07T02:36:30.096Z,99984.06
2022-08-07T02:36:41.282Z,99991.84
2022-08-07T02:37:22.230Z,99981.66
2022-08-07T02:37:59.123Z,99991.16
2022-08-07T02:38:38.744Z,99990.38
2022-08-07T02:39:17.221Z,99986.09
2022-08-07T02:40:30.978Z,99994.25
2022-08-07T02:41:05.152Z,99988.69
2022-08-07T02:41:40.515Z,99997.81
2022-08-07T02:42:23.252Z,99995.06
2022-08-07T02:42:57.855Z,99987.25
2022-08-07T02:43:31.279Z,99995.13
2022-08-07T02:44:07.873Z,99987.69
2022-08-07T02:44:45.812Z,99991.25
2022-08-07T02:45:58.128Z,99988.03
2022-08-07T02:46:24.519Z,99998.63
2022-08-07T02:47:00.982Z,99994.25
2022-08-07T02:47:45.152Z,99997.44
2022-08-07T02:48:25.908Z,99991.16
2022-08-07T02:49:03.332Z,99998.25
2022-08-07T02:49:59.103Z,99990.00
2022-08-07T02:50:33.985Z,99990.38
2022-08-07T02:51:29.260Z,100000.19
2022-08-07T02:52:13.024Z,99998.97
2022-08-07T02:53:03.238Z,99995.06
2022-08-07T02:53:42.934Z,99998.16
2022-08-07T02:54:20.549Z,99997.38
2022-08-07T02:55:03.830Z,99996.22
2022-08-07T02:56:02.246Z,100003.31
2022-08-07T02:56:36.510Z,99997.38
2022-08-07T02:57:13.576Z,100004.13
2022-08-07T02:57:48.029Z,100003.31
2022-08-07T02:58:27.299Z,100003.75
2022-08-07T02:59:04.191Z,100008.91
2022-08-07T02:59:45.591Z,100004.53
2022-08-07T03:00:30.554Z,100002.50
2022-08-07T03:01:04.452Z,100009.31
2022-08-07T03:01:42.256Z,100008.09
2022-08-07T03:02:20.544Z,99999.03
2022-08-07T03:02:57.230Z,100003.03
2022-08-07T03:03:49.156Z,99996.75
2022-08-07T03:04:30.000Z,100002.94
2022-08-07T03:05:05.196Z,100002.59
2022-08-07T03:05:39.778Z,100004.19
2022-08-07T03:06:32.100Z,100005.78
2022-08-07T03:07:10.410Z,100005.69
2022-08-07T03:08:05.030Z,100004.53
2022-08-07T03:08:44.633Z,100000.56
2022-08-07T03:09:44.737Z,100004.53
2022-08-07T03:10:14.802Z,100002.88
2022-08-07T03:10:47.383Z,100006.50
2022-08-07T03:11:28.130Z,100005.34
2022-08-07T03:12:03.038Z,100008.09
2022-08-07T03:12:38.840Z,100002.25
2022-08-07T03:13:20.160Z,100008.53
2022-08-07T03:13:57.448Z,100006.94
2022-08-07T03:14:36.360Z,100004.19
2022-08-07T03:15:13.233Z,100002.25
2022-08-07T03:16:03.170Z,100008.44
2022-08-07T03:16:38.407Z,100006.94
2022-08-07T03:17:14.527Z,99996.75
2022-08-07T03:17:49.679Z,99997.53
2022-08-07T03:18:34.544Z,100006.56
2022-08-07T03:19:11.009Z,100004.19
2022-08-07T03:19:54.520Z,100002.59
2022-08-07T03:20:30.256Z,99998.25
2022-08-07T03:21:03.003Z,100005.34
2022-08-07T03:21:35.795Z,100004.19
2022-08-07T03:22:18.929Z,100005.00
2022-08-07T03:22:54.024Z,100003.75
2022-08-07T03:23:33.884Z,99999.03
2022-08-07T03:24:27.588Z,100003.66
2022-08-07T03:25:03.407Z,100007.56
2022-08-07T03:25:43.407Z,100006.75
2022-08-07T03:26:23.665Z,100002.88
2022-08-07T03:27:01.315Z,100002.88
2022-08-07T03:27:59.731Z,100011.09
2022-08-07T03:29:14.724Z,100012.25
2022-08-07T03:29:54.251Z,100012.25
2022-08-07T03:30:31.086Z,100008.72
2022-08-07T03:31:24.560Z,100006.41
2022-08-07T03:32:05.626Z,100003.94
2022-08-07T03:32:49.158Z,100004.38
2022-08-07T03:33:40.109Z,100011.38
2022-08-07T03:35:17.564Z,100010.69
2022-08-07T03:36:29.939Z,100015.47
2022-08-07T03:37:12.184Z,100016.25
2022-08-07T03:37:53.882Z,100017.88
2022-08-07T03:38:33.303Z,100013.50
2022-08-07T03:39:10.058Z,100011.19
2022-08-07T03:40:13.099Z,100020.69
2022-08-07T03:40:44.172Z,100019.00
2022-08-07T03:41:42.338Z,100015.91
2022-08-07T03:42:15.656Z,100017.06
2022-08-07T03:42:49.293Z,100021.03
2022-08-07T03:43:26.637Z,100019.53
2022-08-07T03:44:05.583Z,100009.25
2022-08-07T03:44:53.694Z,100016.78
2022-08-07T03:45:31.517Z,100011.66
2022-08-07T03:46:18.447Z,100012.44
2022-08-07T03:47:11.494Z,100013.25
2022-08-07T03:47:51.633Z,100010.84
2022-08-07T03:48:26.832Z,100013.25
2022-08-07T03:49:05.606Z,100016.88
2022-08-07T03:49:51.901Z,100011.72
2022-08-07T03:50:29.309Z,100017.22
2022-08-07T03:51:06.178Z,100009.44
2022-08-07T03:52:01.045Z,100013.31
2022-08-07T03:52:38.283Z,100018.81
2022-08-07T03:53:15.695Z,100014.13
2022-08-07T03:54:06.010Z,100015.72
2022-08-07T03:54:54.102Z,100023.19
2022-08-07T03:55:58.094Z,100020.41
2022-08-07T03:56:33.092Z,100027.88
2022-08-07T03:57:09.066Z,100023.19
2022-08-07T03:59:05.151Z,100021.66
2022-08-07T03:59:07.815Z,100024.31
2022-08-07T03:59:37.405Z,100023.19
2022-08-07T04:00:21.012Z,100018.09
2022-08-07T04:01:07.633Z,100023.25
2022-08-07T04:01:46.129Z,100022.91
2022-08-07T04:02:21.907Z,100023.31
2022-08-07T04:02:57.727Z,100024.94
2022-08-07T04:03:38.892Z,100028.09
2022-08-07T04:04:25.866Z,100017.09
2022-08-07T04:05:06.120Z,100028.91
2022-08-07T04:05:42.159Z,100021.91
2022-08-07T04:06:37.907Z,100023.50
2022-08-07T04:07:16.778Z,100018.00
2022-08-07T04:07:51.846Z,100029.44
2022-08-07T04:08:32.343Z,100021.66
2022-08-07T04:09:05.988Z,100025.53
2022-08-07T04:09:44.855Z,100026.44
2022-08-07T04:10:19.646Z,100028.75
2022-08-07T04:12:20.843Z,100023.69
2022-08-07T04:12:26.885Z,100027.50
2022-08-07T04:12:47.276Z,100035.28
2022-08-07T04:13:22.034Z,100033.44
2022-08-07T04:14:10.430Z,100029.72
2022-08-07T04:14:56.941Z,100032.47
2022-08-07T04:15:32.509Z,100031.03
2022-08-07T04:16:06.103Z,100032.28
2022-08-07T04:16:58.186Z,100032.75
2022-08-07T04:18:57.081Z,100035.84
2022-08-07T04:18:57.425Z,100031.94
2022-08-07T04:19:18.742Z,100027.25
2022-08-07T04:19:55.872Z,100032.81
2022-08-07T04:20:35.321Z,100022.63
2022-08-07T04:21:08.087Z,100030.16
2022-08-07T04:21:58.721Z,100034.50
2022-08-07T04:22:36.242Z,100032.09
2022-08-07T04:23:19.219Z,100034.50
2022-08-07T04:24:03.907Z,100030.59
2022-08-07T04:24:41.285Z,100029.78
2022-08-07T04:25:18.790Z,100030.22
2022-08-07T04:25:55.751Z,100031.81
2022-08-07T04:26:31.510Z,100036.16
2022-08-07T04:27:05.578Z,100033.06
2022-08-07T04:28:00.469Z,100028.72
2022-08-07T04:28:34.817Z,100030.66
2022-08-07T04:29:10.833Z,100030.31
2022-08-07T04:29:49.021Z,100031.88
2022-08-07T04:30:55.211Z,100024.38
2022-08-07T04:31:39.155Z,100031.81
2022-08-07T04:32:34.577Z,100026.31
2022-08-07T04:33:10.573Z,100028.72
2022-08-07T04:33:54.964Z,100030.31
2022-08-07T04:34:33.355Z,100025.63
2022-08-07T04:35:11.578Z,100028.38
2022-08-07T04:35:50.189Z,100027.63
2022-08-07T04:36:26.242Z,100030.81
2022-08-07T04:37:00.076Z,100032.41
2022-08-07T04:38:00.786Z,100027.38
2022-08-07T04:38:32.536Z,100030.03
2022-08-07T04:39:06.602Z,100029.31
2022-08-07T04:39:47.972Z,100023.81
2022-08-07T04:40:29.603Z,100030.13
2022-08-07T04:41:04.295Z,100031.69
2022-08-07T04:41:50.387Z,100024.69
2022-08-07T04:42:29.842Z,100037.28
2022-08-07T04:43:03.402Z,100033.34
2022-08-07T04:44:09.663Z,100034.59
2022-08-07T04:44:54.488Z,100032.59
2022-08-07T04:46:01.020Z,100029.44
2022-08-07T04:47:04.141Z,100033.00
2022-08-07T04:47:57.272Z,100032.22
2022-08-07T04:48:44.874Z,100024.31
2022-08-07T04:49:37.838Z,100027.94
2022-08-07T04:50:18.624Z,100032.28
2022-08-07T04:51:27.751Z,100035.41
2022-08-07T04:52:12.730Z,100033.06
2022-08-07T04:52:52.395Z,100029.16
2022-08-07T04:54:05.302Z,100030.78
2022-08-07T04:54:36.874Z,100040.97
2022-08-07T04:58:09.904Z,100041.84
2022-08-07T04:58:10.238Z,100039.03
2022-08-07T04:58:15.999Z,100038.22
2022-08-07T04:58:54.579Z,100043.75
2022-08-07T05:00:11.510Z,100040.19
2022-08-07T05:00:38.195Z,100048.44
2022-08-07T05:01:20.544Z,100046.94
2022-08-07T05:02:00.613Z,100039.09
2022-08-07T05:02:43.738Z,100041.13
2022-08-07T05:03:59.758Z,100045.47
2022-08-07T05:04:26.398Z,100045.06
2022-08-07T05:05:11.445Z,100047.06
2022-08-07T05:06:19.196Z,100043.19
2022-08-07T05:07:19.738Z,100044.78
2022-08-07T05:08:01.161Z,100044.78
2022-08-07T05:08:59.307Z,100051.16
2022-08-07T05:09:45.421Z,100047.59
2022-08-07T05:10:31.245Z,100047.22
2022-08-07T05:11:09.767Z,100053.59
2022-08-07T05:12:02.404Z,100046.13
2022-08-07T05:12:46.221Z,100052.09
2022-08-07T05:14:53.407Z,100053.69
2022-08-07T05:14:53.822Z,100050.94
2022-08-07T05:15:36.074Z,100055.25
2022-08-07T05:16:12.545Z,100053.75
2022-08-07T05:16:52.875Z,100048.69
2022-08-07T05:17:53.055Z,100056.25
2022-08-07T05:18:27.505Z,100052.69
2022-08-07T05:19:11.586Z,100055.88
2022-08-07T05:19:47.389Z,100050.00
2022-08-07T05:20:26.936Z,100054.03
2022-08-07T05:21:09.256Z,100055.22
2022-08-07T05:22:00.198Z,100048.94
2022-08-07T05:22:40.266Z,100048.13
2022-08-07T05:23:23.056Z,100053.69
2022-08-07T05:24:10.316Z,100053.28
2022-08-07T05:24:44.370Z,100049.22
2022-08-07T05:25:25.865Z,100055.59
2022-08-07T05:26:23.724Z,100058.00
2022-08-07T05:27:05.586Z,100060.38
2022-08-07T05:28:03.550Z,100051.75
2022-08-07T05:28:49.926Z,100057.25
2022-08-07T05:29:38.838Z,100057.69
2022-08-07T05:30:30.130Z,100062.06
2022-08-07T05:31:07.446Z,100058.91
2022-08-07T05:31:51.186Z,100064.50
2022-08-07T05:32:29.214Z,100049.16
2022-08-07T05:33:03.444Z,100064.59
2022-08-07T05:33:40.434Z,100055.13
2022-08-07T05:34:26.354Z,100058.69
2022-08-07T05:35:03.922Z,100061.91
2022-08-07T05:35:42.125Z,100060.75
2022-08-07T05:36:22.616Z,100057.97
2022-08-07T05:37:07.695Z,100055.22
2022-08-07T05:38:09.001Z,100057.53
2022-08-07T05:38:58.140Z,100065.44
2022-08-07T05:40:05.753Z,100057.13
2022-08-07T05:40:31.613Z,100059.88
2022-08-07T05:41:14.345Z,100064.66
2022-08-07T05:42:00.567Z,100054.84
2022-08-07T05:42:39.407Z,100059.56
2022-08-07T05:43:18.667Z,100060.00
2022-08-07T05:44:11.960Z,100057.69
2022-08-07T05:45:04.416Z,100058.41
2022-08-07T05:45:47.607Z,100062.31
2022-08-07T05:46:26.519Z,100061.97
2022-08-07T05:47:17.827Z,100064.72
2022-08-07T05:48:02.017Z,100058.41
2022-08-07T05:48:58.206Z,100062.75
2022-08-07T05:49:40.384Z,100060.00
2022-08-07T05:50:15.239Z,100060.44
2022-08-07T05:50:48.292Z,100063.25
2022-08-07T05:51:33.171Z,100057.38
2022-08-07T05:52:05.905Z,100061.72
2022-08-07T05:52:38.343Z,100065.72
2022-08-07T05:54:13.309Z,100062.19
2022-08-07T05:54:13.913Z,100059.84
2022-08-07T05:55:10.198Z,100061.00
2022-08-07T05:56:03.197Z,100062.59
2022-08-07T05:56:42.803Z,100066.94
2022-08-07T05:57:15.831Z,100064.63
2022-08-07T05:57:48.703Z,100063.91
2022-08-07T05:58:36.085Z,100062.34
2022-08-07T05:59:16.335Z,100064.31
2022-08-07T05:59:57.215Z,100063.16
2022-08-07T06:00:33.835Z,100071.47
2022-08-07T06:01:14.885Z,100071.94
2022-08-07T06:01:51.510Z,100069.59
2022-08-07T06:02:28.797Z,100068.06
2022-08-07T06:03:08.631Z,100073.22
2022-08-07T06:03:56.674Z,100068.16
2022-08-07T06:04:38.074Z,100073.22
2022-08-07T06:05:15.418Z,100071.28
2022-08-07T06:05:56.623Z,100071.28
2022-08-07T06:06:32.693Z,100072.88
2022-08-07T06:07:08.612Z,100069.75
2022-08-07T06:08:13.090Z,100072.53
2022-08-07T06:08:55.278Z,100070.13
2022-08-07T06:10:03.741Z,100072.16
2022-08-07T06:10:24.160Z,100067.00
2022-08-07T06:10:59.193Z,100074.19
2022-08-07T06:11:37.835Z,100073.81
2022-08-07T06:12:15.320Z,100077.78
2022-08-07T06:12:48.933Z,100073.88
2022-08-07T06:14:10.497Z,100079.00
2022-08-07T06:14:21.390Z,100069.53
2022-08-07T06:15:07.064Z,100069.53
2022-08-07T06:15:42.450Z,100072.72
2022-08-07T06:16:23.315Z,100071.53
2022-08-07T06:17:07.073Z,100077.50
2022-08-07T06:17:53.783Z,100077.50
2022-08-07T06:18:30.646Z,100079.88
2022-08-07T06:19:06.699Z,100075.59
2022-08-07T06:19:52.318Z,100081.09
2022-08-07T06:20:50.386Z,100070.44
2022-08-07T06:22:14.427Z,100075.16
2022-08-07T06:22:28.510Z,100070.81
2022-08-07T06:23:46.100Z,100074.38
2022-08-07T06:24:46.106Z,100072.78
2022-08-07T06:25:02.959Z,100070.81
2022-08-07T06:25:36.461Z,100072.81
2022-08-07T06:26:15.760Z,100077.19
2022-08-07T06:26:49.694Z,100073.25
2022-08-07T06:28:00.545Z,100074.84
2022-08-07T06:28:18.578Z,100076.38
2022-08-07T06:29:06.498Z,100074.44
2022-08-07T06:29:41.689Z,100075.22
2022-08-07T06:30:31.927Z,100084.72
2022-08-07T06:31:09.879Z,100075.66
2022-08-07T06:31:50.021Z,100073.75
2022-08-07T06:32:29.307Z,100082.81
2022-08-07T06:33:05.097Z,100073.25
2022-08-07T06:33:42.565Z,100073.69
2022-08-07T06:34:19.874Z,100077.28
2022-08-07T06:34:54.505Z,100071.78
2022-08-07T06:35:39.187Z,100071.41
2022-08-07T06:36:34.777Z,100081.66
2022-08-07T06:37:09.647Z,100073.38
2022-08-07T06:37:47.312Z,100078.53
2022-08-07T06:38:25.231Z,100076.56
2022-08-07T06:40:16.016Z,100084.06
2022-08-07T06:40:18.416Z,100078.16
2022-08-07T06:40:56.069Z,100069.06
2022-08-07T06:42:02.566Z,100078.59
2022-08-07T06:42:50.865Z,100075.03
2022-08-07T06:43:46.662Z,100070.69
2022-08-07T06:44:45.105Z,100075.78
2022-08-07T06:45:25.184Z,100076.19
2022-08-07T06:46:04.910Z,100081.72
2022-08-07T06:46:53.652Z,100072.28
2022-08-07T06:47:57.265Z,100078.94
2022-08-07T06:48:32.728Z,100072.63
2022-08-07T06:49:08.140Z,100077.03
2022-08-07T06:49:51.888Z,100070.81
2022-08-07T06:50:26.174Z,100083.06
2022-08-07T06:51:08.230Z,100080.00
2022-08-07T06:51:49.920Z,100077.63
2022-08-07T06:52:35.645Z,100072.13
2022-08-07T06:53:49.180Z,100070.16
2022-08-07T06:55:29.404Z,100078.03
2022-08-07T06:55:34.051Z,100066.94
2022-08-07T06:56:00.895Z,100069.63
2022-08-07T06:56:49.658Z,100073.56
2022-08-07T06:57:43.590Z,100070.81
2022-08-07T06:58:28.718Z,100072.38
2022-08-07T07:00:12.290Z,100073.97
2022-08-07T07:00:18.027Z,100072.47
2022-08-07T07:00:53.442Z,100070.13
2022-08-07T07:01:27.035Z,100069.38
2022-08-07T07:02:09.934Z,100069.81
2022-08-07T07:02:53.821Z,100072.97
2022-08-07T07:03:48.741Z,100074.97
2022-08-07T07:04:28.450Z,100074.09
2022-08-07T07:05:06.819Z,100073.31
2022-08-07T07:06:05.063Z,100074.97
2022-08-07T07:06:57.300Z,100070.16
2022-08-07T07:07:59.107Z,100079.25
2022-08-07T07:08:28.598Z,100074.97
2022-08-07T07:09:19.287Z,100068.66
2022-08-07T07:09:54.867Z,100067.09
2022-08-07T07:10:28.691Z,100069.91
2022-08-07T07:11:01.599Z,100080.22
2022-08-07T07:12:07.888Z,100074.69
2022-08-07T07:12:53.902Z,100075.06
2022-08-07T07:13:56.154Z,100077.47
2022-08-07T07:14:34.545Z,100076.66
2022-08-07T07:15:23.784Z,100066.84
2022-08-07T07:16:03.398Z,100072.81
2022-08-07T07:16:49.947Z,100078.38
2022-08-07T07:17:38.911Z,100072.06
2022-08-07T07:18:43.087Z,100082.34
2022-08-07T07:19:55.502Z,100081.59
2022-08-07T07:20:15.931Z,100082.00
2022-08-07T07:20:52.497Z,100087.56
2022-08-07T07:22:04.042Z,100082.88
2022-08-07T07:22:37.024Z,100086.44
2022-08-07T07:24:06.298Z,100088.84
2022-08-07T07:24:17.361Z,100083.31
2022-08-07T07:25:02.623Z,100088.50
2022-08-07T07:26:34.319Z,100087.28
2022-08-07T07:26:41.282Z,100093.63
2022-08-07T07:27:35.388Z,100081.84
2022-08-07T07:28:42.049Z,100087.78
2022-08-07T07:29:57.078Z,100088.22
2022-08-07T07:30:32.747Z,100089.78
2022-08-07T07:31:21.841Z,100085.47
2022-08-07T07:31:56.831Z,100091.81
2022-08-07T07:32:38.832Z,100081.19
2022-08-07T07:33:15.157Z,100087.16
2022-08-07T07:33:56.674Z,100084.38
2022-08-07T07:34:34.634Z,100087.56
2022-08-07T07:35:11.227Z,100092.72
2022-08-07T07:35:54.679Z,100089.16
2022-08-07T07:36:48.067Z,100091.91
2022-08-07T07:37:47.476Z,100098.59
2022-08-07T07:38:24.708Z,100097.38
2022-08-07T07:39:00.811Z,100095.84
2022-08-07T07:39:45.388Z,100097.44
2022-08-07T07:40:26.267Z,100096.28
2022-08-07T07:41:08.572Z,100091.16
2022-08-07T07:42:02.043Z,100097.91
2022-08-07T07:42:41.550Z,100102.63
2022-08-07T07:43:18.585Z,100100.72
2022-08-07T07:44:14.614Z,100096.78
2022-08-07T07:44:50.305Z,100099.06
2022-08-07T07:46:36.533Z,100094.41
2022-08-07T07:46:37.691Z,100103.06
2022-08-07T07:47:23.808Z,100098.41
2022-08-07T07:47:58.536Z,100102.00
2022-08-07T07:48:35.957Z,100079.94
2022-08-07T07:50:34.694Z,100093.47
2022-08-07T07:50:35.565Z,100090.22
2022-08-07T07:51:02.251Z,100095.47
2022-08-07T07:51:58.139Z,100092.34
2022-08-07T07:52:32.784Z,100095.50
2022-08-07T07:53:06.137Z,100085.28
2022-08-07T07:53:57.451Z,100092.06
2022-08-07T07:54:32.027Z,100086.94
2022-08-07T07:55:08.054Z,100089.75
2022-08-07T07:55:54.836Z,100083.03
2022-08-07T07:56:35.550Z,100089.38
2022-08-07T07:57:09.298Z,100091.41
2022-08-07T07:57:52.955Z,100086.63
2022-08-07T07:58:28.862Z,100087.84
2022-08-07T07:59:05.902Z,100090.59
2022-08-07T07:59:53.377Z,100093.34
2022-08-07T08:00:34.203Z,100088.56
2022-08-07T08:02:03.296Z,100087.00
2022-08-07T08:02:10.682Z,100092.09
2022-08-07T08:03:01.314Z,100092.88
2022-08-07T08:04:10.254Z,100092.09
2022-08-07T08:04:37.219Z,100091.72
2022-08-07T08:05:14.958Z,100090.97
2022-08-07T08:05:54.772Z,100097.31
2022-08-07T08:06:28.383Z,100093.03
2022-08-07T08:07:07.751Z,100097.78
2022-08-07T08:08:00.057Z,100091.91
2022-08-07T08:08:39.445Z,100097.03
2022-08-07T08:09:19.380Z,100094.31
2022-08-07T08:10:04.893Z,100097.50
2022-08-07T08:10:42.215Z,100096.34
2022-08-07T08:11:59.128Z,100092.81
2022-08-07T08:12:36.816Z,100093.59
2022-08-07T08:13:15.004Z,100093.59
2022-08-07T08:13:53.695Z,100097.19
2022-08-07T08:14:27.420Z,100095.22
2022-08-07T08:14:59.982Z,100093.66
2022-08-07T08:15:57.877Z,100095.69
2022-08-07T08:16:37.299Z,100095.22
2022-08-07T08:17:57.990Z,100093.66
2022-08-07T08:18:18.120Z,100098.00
2022-08-07T08:18:57.316Z,100098.41
2022-08-07T08:20:17.570Z,100090.91